Bleiderdingen, Germany

6:03 AM CET on December 10, 2016 (GMT +0100)
Ernteweg | | Change Station

Elev 1079 ft 49.54 °N, 7.32 °E | Updated 8 minutes ago

Clear
Clear
33.6 °F
Feels Like 34 °F
N
1.9
Wind Variable Wind from SW
Gusts 5.0 mph

Today
High -- | Low -- °F
--% Chance of Precip.
Yesterday
High -- | Low -- °F
Precip. -- in
Pressure 30.37 in
Visibility 5.0 miles
Clouds Clear
Windchill 34 °F
Dew Point 33 °F
Humidity 99%
Rainfall 0.00 in
Snow Depth Not available.
8:17 AM 4:31 PM
Waxing Gibbous, 80% visible
METAR ETAR 100458Z 00000KT 8000 BR CLR M03/M04 A3032 RMK AO2A SLP284 T10341036 $
Pressure 30.37 in
Visibility 5.0 miles
Clouds Clear
Windchill 34 °F
Dew Point 33 °F
Humidity 99%
Rainfall 0.00 in
Snow Depth Not available.
8:17 AM 4:31 PM
Waxing Gibbous, 80% visible
METAR ETAR 100458Z 00000KT 8000 BR CLR M03/M04 A3032 RMK AO2A SLP284 T10341036 $

10-Day Weather Forecast

×

Almanac

Astronomy

Dec. 10, 2016 Rise Set
Actual Time
Civil Twilight
Nautical Twilight
Astronomical Twilight
Moon
Length of Visible Light
Length of Day
Tomorrow will be .
, % of the Moon is Illuminated

Today's Extremes

Country Highs Country Lows

Community

WunderPhotos

Upload Photos

1,956,529 photos uploaded!

WunderBlog® & News

Nearby

Air Quality

  Air Quality AQ Index Pollutant
Not available.

Snow Depth

Station Depth Elevation

Earthquake Activity

City Distance Mag. Time & Date
Minimum magnitude displayed is 2.5.

Coastal Water Temperatures

Place Temperature

Stations

Nearby Weather Stations

Station Location Temp. Windchill Dew Point Humidity Wind Precip. Elev Updated Type